Sebago, Maine
Current Conditions -  °F | °C
As of 5:54 PM on Sunday 28 Dec 2014 (Local Time) from KIZG Reporting Station
Clear Clear  
Wind Chill: 34°   Ceiling: Unl
Heat Index: 41°   Visibility: 10mi
Dew Point: 25°   Wind: 13mph
Humidity: 53%   Direction: 280°W
Pressure: 29.81"   Gusts: 17mph
Location:  43.89°N, 70.7°W
Report Text: KIZG 282254Z AUTO 28011G15KT 10SM CLR 05/M04 A2981 RMK AO2 SLP099 T00501039
Loading
Personal Weather Stations






























Interactive Weather Map New forecast layout! Learn more

10-Day Weather Forecast

Advertisements
Track Severe Weather on mobile